sensor_id;sensor_type;location;lat;lon;timestamp;P1;durP1;ratioP1;P2;durP2;ratioP2
24401;SDS011;12539;48.808;11.292;2022-10-31T00:02:07;20.25;;;13.27;;
24401;SDS011;12539;48.808;11.292;2022-10-31T00:04:33;12.02;;;9.40;;
24401;SDS011;12539;48.808;11.292;2022-10-31T00:06:59;17.90;;;13.60;;
24401;SDS011;12539;48.808;11.292;2022-10-31T00:09:24;15.40;;;11.50;;
24401;SDS011;12539;48.808;11.292;2022-10-31T00:11:50;15.38;;;11.35;;
24401;SDS011;12539;48.808;11.292;2022-10-31T00:14:15;18.60;;;13.48;;
24401;SDS011;12539;48.808;11.292;2022-10-31T00:16:41;15.93;;;11.82;;
24401;SDS011;12539;48.808;11.292;2022-10-31T00:19:07;19.17;;;13.95;;
24401;SDS011;12539;48.808;11.292;2022-10-31T00:21:33;16.23;;;11.88;;
24401;SDS011;12539;48.808;11.292;2022-10-31T00:24:00;15.63;;;11.70;;
24401;SDS011;12539;48.808;11.292;2022-10-31T00:26:29;16.65;;;12.32;;
24401;SDS011;12539;48.808;11.292;2022-10-31T00:28:56;13.43;;;11.55;;
24401;SDS011;12539;48.808;11.292;2022-10-31T00:31:23;14.75;;;11.70;;
24401;SDS011;12539;48.808;11.292;2022-10-31T00:33:48;14.07;;;11.20;;
24401;SDS011;12539;48.808;11.292;2022-10-31T00:36:15;17.10;;;13.95;;
24401;SDS011;12539;48.808;11.292;2022-10-31T00:38:43;15.63;;;12.38;;
24401;SDS011;12539;48.808;11.292;2022-10-31T00:41:10;15.27;;;11.60;;
24401;SDS011;12539;48.808;11.292;2022-10-31T00:43:36;13.00;;;11.52;;
24401;SDS011;12539;48.808;11.292;2022-10-31T00:46:02;18.27;;;14.05;;
24401;SDS011;12539;48.808;11.292;2022-10-31T00:48:28;15.50;;;13.20;;
24401;SDS011;12539;48.808;11.292;2022-10-31T00:50:54;14.30;;;12.48;;
24401;SDS011;12539;48.808;11.292;2022-10-31T00:53:20;13.45;;;11.70;;
24401;SDS011;12539;48.808;11.292;2022-10-31T00:55:46;16.13;;;13.25;;
24401;SDS011;12539;48.808;11.292;2022-10-31T00:58:12;24.73;;;16.27;;
24401;SDS011;12539;48.808;11.292;2022-10-31T01:00:37;18.27;;;13.68;;
24401;SDS011;12539;48.808;11.292;2022-10-31T01:03:03;14.48;;;11.65;;
24401;SDS011;12539;48.808;11.292;2022-10-31T01:05:29;13.75;;;11.10;;
24401;SDS011;12539;48.808;11.292;2022-10-31T01:07:55;18.70;;;14.20;;
24401;SDS011;12539;48.808;11.292;2022-10-31T01:10:21;16.73;;;13.00;;
24401;SDS011;12539;48.808;11.292;2022-10-31T01:12:47;14.38;;;12.10;;
24401;SDS011;12539;48.808;11.292;2022-10-31T01:15:14;18.23;;;12.38;;
24401;SDS011;12539;48.808;11.292;2022-10-31T01:17:42;19.08;;;14.23;;
24401;SDS011;12539;48.808;11.292;2022-10-31T01:20:08;19.75;;;14.35;;
24401;SDS011;12539;48.808;11.292;2022-10-31T01:22:35;14.15;;;11.40;;
24401;SDS011;12539;48.808;11.292;2022-10-31T01:25:01;13.90;;;10.93;;
24401;SDS011;12539;48.808;11.292;2022-10-31T01:27:26;15.10;;;9.35;;
24401;SDS011;12539;48.808;11.292;2022-10-31T01:29:52;11.32;;;8.98;;
24401;SDS011;12539;48.808;11.292;2022-10-31T01:32:18;10.80;;;8.63;;
24401;SDS011;12539;48.808;11.292;2022-10-31T01:34:44;15.70;;;11.48;;
24401;SDS011;12539;48.808;11.292;2022-10-31T01:37:09;11.20;;;8.82;;
24401;SDS011;12539;48.808;11.292;2022-10-31T01:39:35;12.85;;;10.48;;
24401;SDS011;12539;48.808;11.292;2022-10-31T01:42:01;25.33;;;13.60;;
24401;SDS011;12539;48.808;11.292;2022-10-31T01:46:56;14.05;;;10.10;;
24401;SDS011;12539;48.808;11.292;2022-10-31T01:52:30;12.55;;;8.68;;
24401;SDS011;12539;48.808;11.292;2022-10-31T01:55:12;11.77;;;9.90;;
24401;SDS011;12539;48.808;11.292;2022-10-31T01:58:06;12.02;;;8.98;;
24401;SDS011;12539;48.808;11.292;2022-10-31T02:00:36;13.15;;;9.45;;
24401;SDS011;12539;48.808;11.292;2022-10-31T02:03:02;15.65;;;11.45;;
24401;SDS011;12539;48.808;11.292;2022-10-31T02:05:29;17.70;;;9.88;;
24401;SDS011;12539;48.808;11.292;2022-10-31T02:08:10;10.88;;;8.95;;
24401;SDS011;12539;48.808;11.292;2022-10-31T02:10:47;14.50;;;10.75;;
24401;SDS011;12539;48.808;11.292;2022-10-31T02:13:12;12.40;;;9.07;;
24401;SDS011;12539;48.808;11.292;2022-10-31T02:15:39;9.98;;;8.90;;
24401;SDS011;12539;48.808;11.292;2022-10-31T02:18:06;9.65;;;8.65;;
24401;SDS011;12539;48.808;11.292;2022-10-31T02:20:46;11.80;;;9.45;;
24401;SDS011;12539;48.808;11.292;2022-10-31T02:34:19;17.40;;;9.88;;
24401;SDS011;12539;48.808;11.292;2022-10-31T02:47:24;22.48;;;9.32;;
24401;SDS011;12539;48.808;11.292;2022-10-31T02:50:11;10.48;;;7.25;;
24401;SDS011;12539;48.808;11.292;2022-10-31T02:52:40;13.82;;;9.15;;
24401;SDS011;12539;48.808;11.292;2022-10-31T02:55:39;17.33;;;9.10;;
24401;SDS011;12539;48.808;11.292;2022-10-31T02:58:02;11.05;;;7.88;;
24401;SDS011;12539;48.808;11.292;2022-10-31T03:00:35;36.80;;;10.98;;
24401;SDS011;12539;48.808;11.292;2022-10-31T03:03:10;22.25;;;10.10;;
24401;SDS011;12539;48.808;11.292;2022-10-31T03:11:06;46.85;;;14.77;;
24401;SDS011;12539;48.808;11.292;2022-10-31T03:13:41;12.38;;;8.13;;
24401;SDS011;12539;48.808;11.292;2022-10-31T03:22:02;18.95;;;11.20;;
24401;SDS011;12539;48.808;11.292;2022-10-31T03:26:36;16.52;;;9.45;;
24401;SDS011;12539;48.808;11.292;2022-10-31T03:29:08;11.65;;;9.18;;
24401;SDS011;12539;48.808;11.292;2022-10-31T03:34:24;46.70;;;19.45;;
24401;SDS011;12539;48.808;11.292;2022-10-31T03:36:52;56.63;;;18.48;;
24401;SDS011;12539;48.808;11.292;2022-10-31T03:39:21;23.95;;;10.07;;
24401;SDS011;12539;48.808;11.292;2022-10-31T03:41:59;87.05;;;22.45;;
24401;SDS011;12539;48.808;11.292;2022-10-31T03:44:36;66.22;;;17.38;;
24401;SDS011;12539;48.808;11.292;2022-10-31T03:47:06;42.05;;;12.30;;
24401;SDS011;12539;48.808;11.292;2022-10-31T03:49:32;44.00;;;11.32;;
24401;SDS011;12539;48.808;11.292;2022-10-31T03:52:01;33.35;;;11.35;;
24401;SDS011;12539;48.808;11.292;2022-10-31T03:54:45;105.43;;;25.90;;
24401;SDS011;12539;48.808;11.292;2022-10-31T04:02:38;55.47;;;15.07;;
24401;SDS011;12539;48.808;11.292;2022-10-31T04:05:07;67.57;;;18.20;;
24401;SDS011;12539;48.808;11.292;2022-10-31T04:07:37;40.83;;;15.00;;
24401;SDS011;12539;48.808;11.292;2022-10-31T04:10:05;33.35;;;12.13;;
24401;SDS011;12539;48.808;11.292;2022-10-31T04:12:34;25.98;;;10.25;;
24401;SDS011;12539;48.808;11.292;2022-10-31T04:15:03;22.48;;;9.05;;
24401;SDS011;12539;48.808;11.292;2022-10-31T04:17:31;15.95;;;9.98;;
24401;SDS011;12539;48.808;11.292;2022-10-31T04:19:59;20.88;;;11.68;;
24401;SDS011;12539;48.808;11.292;2022-10-31T04:22:26;51.25;;;19.02;;
24401;SDS011;12539;48.808;11.292;2022-10-31T04:24:51;53.30;;;16.58;;
24401;SDS011;12539;48.808;11.292;2022-10-31T04:27:17;39.40;;;15.55;;
24401;SDS011;12539;48.808;11.292;2022-10-31T04:29:43;36.72;;;12.88;;
24401;SDS011;12539;48.808;11.292;2022-10-31T04:32:08;25.70;;;10.95;;
24401;SDS011;12539;48.808;11.292;2022-10-31T04:34:34;15.68;;;9.82;;
24401;SDS011;12539;48.808;11.292;2022-10-31T04:37:00;21.25;;;10.18;;
24401;SDS011;12539;48.808;11.292;2022-10-31T04:39:25;19.42;;;11.05;;
24401;SDS011;12539;48.808;11.292;2022-10-31T04:41:51;25.15;;;12.27;;
24401;SDS011;12539;48.808;11.292;2022-10-31T04:44:16;16.60;;;8.70;;
24401;SDS011;12539;48.808;11.292;2022-10-31T04:46:42;42.42;;;18.70;;
24401;SDS011;12539;48.808;11.292;2022-10-31T04:49:08;29.58;;;12.68;;
24401;SDS011;12539;48.808;11.292;2022-10-31T04:51:33;33.00;;;11.27;;
24401;SDS011;12539;48.808;11.292;2022-10-31T04:53:59;15.27;;;9.18;;
24401;SDS011;12539;48.808;11.292;2022-10-31T04:56:25;37.55;;;16.90;;
24401;SDS011;12539;48.808;11.292;2022-10-31T04:58:51;19.60;;;11.10;;
24401;SDS011;12539;48.808;11.292;2022-10-31T05:01:16;29.65;;;17.42;;
24401;SDS011;12539;48.808;11.292;2022-10-31T05:03:42;26.10;;;13.30;;
24401;SDS011;12539;48.808;11.292;2022-10-31T05:06:08;60.78;;;20.13;;
24401;SDS011;12539;48.808;11.292;2022-10-31T05:08:33;33.33;;;11.75;;
24401;SDS011;12539;48.808;11.292;2022-10-31T05:11:03;55.85;;;19.48;;
24401;SDS011;12539;48.808;11.292;2022-10-31T05:13:29;19.47;;;9.53;;
24401;SDS011;12539;48.808;11.292;2022-10-31T05:15:55;18.00;;;8.88;;
24401;SDS011;12539;48.808;11.292;2022-10-31T05:18:21;82.63;;;29.35;;
24401;SDS011;12539;48.808;11.292;2022-10-31T05:20:47;15.40;;;8.98;;
24401;SDS011;12539;48.808;11.292;2022-10-31T05:23:13;22.70;;;11.00;;
24401;SDS011;12539;48.808;11.292;2022-10-31T05:25:39;16.42;;;9.75;;
24401;SDS011;12539;48.808;11.292;2022-10-31T05:28:05;19.92;;;10.05;;
24401;SDS011;12539;48.808;11.292;2022-10-31T05:30:31;17.90;;;10.50;;
24401;SDS011;12539;48.808;11.292;2022-10-31T05:32:58;17.05;;;8.63;;
24401;SDS011;12539;48.808;11.292;2022-10-31T05:35:25;23.35;;;10.63;;
24401;SDS011;12539;48.808;11.292;2022-10-31T05:37:53;23.33;;;10.45;;
24401;SDS011;12539;48.808;11.292;2022-10-31T05:40:19;15.15;;;9.65;;
24401;SDS011;12539;48.808;11.292;2022-10-31T05:42:46;21.70;;;10.02;;
24401;SDS011;12539;48.808;11.292;2022-10-31T05:45:15;29.30;;;10.75;;
24401;SDS011;12539;48.808;11.292;2022-10-31T05:47:42;35.25;;;12.90;;
24401;SDS011;12539;48.808;11.292;2022-10-31T05:50:14;39.50;;;11.93;;
24401;SDS011;12539;48.808;11.292;2022-10-31T05:52:40;33.65;;;11.57;;
24401;SDS011;12539;48.808;11.292;2022-10-31T05:55:06;61.30;;;19.88;;
24401;SDS011;12539;48.808;11.292;2022-10-31T05:57:32;53.30;;;22.38;;
24401;SDS011;12539;48.808;11.292;2022-10-31T05:59:58;101.25;;;34.03;;
24401;SDS011;12539;48.808;11.292;2022-10-31T06:02:24;80.30;;;22.35;;
24401;SDS011;12539;48.808;11.292;2022-10-31T06:04:51;84.80;;;22.73;;
24401;SDS011;12539;48.808;11.292;2022-10-31T06:10:02;132.43;;;30.00;;
24401;SDS011;12539;48.808;11.292;2022-10-31T06:12:30;77.63;;;25.05;;
24401;SDS011;12539;48.808;11.292;2022-10-31T06:14:56;43.17;;;17.90;;
24401;SDS011;12539;48.808;11.292;2022-10-31T06:17:22;70.10;;;25.73;;
24401;SDS011;12539;48.808;11.292;2022-10-31T06:19:48;174.18;;;40.08;;
24401;SDS011;12539;48.808;11.292;2022-10-31T06:22:13;83.30;;;21.85;;
24401;SDS011;12539;48.808;11.292;2022-10-31T06:24:39;29.75;;;14.70;;
24401;SDS011;12539;48.808;11.292;2022-10-31T06:27:05;38.45;;;16.77;;
24401;SDS011;12539;48.808;11.292;2022-10-31T06:29:31;84.82;;;26.25;;
24401;SDS011;12539;48.808;11.292;2022-10-31T06:31:56;53.97;;;17.17;;
24401;SDS011;12539;48.808;11.292;2022-10-31T06:34:22;27.17;;;13.85;;
24401;SDS011;12539;48.808;11.292;2022-10-31T06:36:48;30.73;;;14.88;;
24401;SDS011;12539;48.808;11.292;2022-10-31T06:39:14;34.97;;;14.63;;
24401;SDS011;12539;48.808;11.292;2022-10-31T06:41:40;72.03;;;23.98;;
24401;SDS011;12539;48.808;11.292;2022-10-31T06:44:06;23.15;;;11.23;;
24401;SDS011;12539;48.808;11.292;2022-10-31T06:46:32;24.70;;;12.00;;
24401;SDS011;12539;48.808;11.292;2022-10-31T06:48:59;27.15;;;11.85;;
24401;SDS011;12539;48.808;11.292;2022-10-31T06:51:24;35.35;;;10.93;;
24401;SDS011;12539;48.808;11.292;2022-10-31T06:53:50;22.25;;;10.45;;
24401;SDS011;12539;48.808;11.292;2022-10-31T06:56:16;19.25;;;9.38;;
24401;SDS011;12539;48.808;11.292;2022-10-31T06:58:42;16.40;;;10.05;;
24401;SDS011;12539;48.808;11.292;2022-10-31T07:01:07;19.23;;;10.35;;
24401;SDS011;12539;48.808;11.292;2022-10-31T07:03:33;34.00;;;11.80;;
24401;SDS011;12539;48.808;11.292;2022-10-31T07:05:59;39.72;;;13.80;;
24401;SDS011;12539;48.808;11.292;2022-10-31T07:08:24;32.72;;;11.45;;
24401;SDS011;12539;48.808;11.292;2022-10-31T07:10:51;47.55;;;15.55;;
24401;SDS011;12539;48.808;11.292;2022-10-31T07:13:18;36.67;;;10.02;;
24401;SDS011;12539;48.808;11.292;2022-10-31T07:15:46;30.83;;;9.57;;
24401;SDS011;12539;48.808;11.292;2022-10-31T07:18:12;39.78;;;12.65;;
24401;SDS011;12539;48.808;11.292;2022-10-31T07:20:38;47.35;;;12.52;;
24401;SDS011;12539;48.808;11.292;2022-10-31T07:23:04;36.33;;;9.38;;
24401;SDS011;12539;48.808;11.292;2022-10-31T07:25:29;30.52;;;9.27;;
24401;SDS011;12539;48.808;11.292;2022-10-31T07:27:55;25.42;;;9.45;;
24401;SDS011;12539;48.808;11.292;2022-10-31T07:30:21;24.63;;;10.35;;
24401;SDS011;12539;48.808;11.292;2022-10-31T07:32:48;24.20;;;10.93;;
24401;SDS011;12539;48.808;11.292;2022-10-31T07:35:15;23.10;;;10.25;;
24401;SDS011;12539;48.808;11.292;2022-10-31T07:37:42;26.92;;;9.77;;
24401;SDS011;12539;48.808;11.292;2022-10-31T07:40:08;25.58;;;9.80;;
24401;SDS011;12539;48.808;11.292;2022-10-31T07:42:35;21.95;;;9.63;;
24401;SDS011;12539;48.808;11.292;2022-10-31T07:45:02;15.20;;;8.80;;
24401;SDS011;12539;48.808;11.292;2022-10-31T07:47:48;35.03;;;13.75;;
24401;SDS011;12539;48.808;11.292;2022-10-31T07:50:16;47.92;;;15.13;;
24401;SDS011;12539;48.808;11.292;2022-10-31T07:52:46;30.20;;;11.65;;
24401;SDS011;12539;48.808;11.292;2022-10-31T07:55:12;35.22;;;9.65;;
24401;SDS011;12539;48.808;11.292;2022-10-31T07:57:38;39.42;;;11.98;;
24401;SDS011;12539;48.808;11.292;2022-10-31T08:00:05;36.85;;;11.25;;
24401;SDS011;12539;48.808;11.292;2022-10-31T08:02:33;27.13;;;12.00;;
24401;SDS011;12539;48.808;11.292;2022-10-31T08:04:59;25.83;;;9.75;;
24401;SDS011;12539;48.808;11.292;2022-10-31T08:07:27;43.08;;;13.68;;
24401;SDS011;12539;48.808;11.292;2022-10-31T08:09:54;40.65;;;11.93;;
24401;SDS011;12539;48.808;11.292;2022-10-31T08:12:20;47.50;;;13.70;;
24401;SDS011;12539;48.808;11.292;2022-10-31T08:14:46;23.90;;;9.95;;
24401;SDS011;12539;48.808;11.292;2022-10-31T08:17:11;54.97;;;14.70;;
24401;SDS011;12539;48.808;11.292;2022-10-31T08:19:37;63.25;;;14.43;;
24401;SDS011;12539;48.808;11.292;2022-10-31T08:22:03;35.28;;;10.45;;
24401;SDS011;12539;48.808;11.292;2022-10-31T08:24:28;104.13;;;20.08;;
24401;SDS011;12539;48.808;11.292;2022-10-31T08:26:54;63.08;;;12.30;;
24401;SDS011;12539;48.808;11.292;2022-10-31T08:29:20;39.78;;;11.05;;
24401;SDS011;12539;48.808;11.292;2022-10-31T08:31:45;30.63;;;10.75;;
24401;SDS011;12539;48.808;11.292;2022-10-31T08:34:11;43.80;;;10.80;;
24401;SDS011;12539;48.808;11.292;2022-10-31T08:36:36;90.32;;;19.08;;
24401;SDS011;12539;48.808;11.292;2022-10-31T08:39:02;33.08;;;12.23;;
24401;SDS011;12539;48.808;11.292;2022-10-31T08:41:28;48.25;;;14.85;;
24401;SDS011;12539;48.808;11.292;2022-10-31T08:43:54;45.83;;;12.35;;
24401;SDS011;12539;48.808;11.292;2022-10-31T08:46:20;22.83;;;9.30;;
24401;SDS011;12539;48.808;11.292;2022-10-31T08:48:48;18.13;;;8.60;;
24401;SDS011;12539;48.808;11.292;2022-10-31T08:51:14;25.75;;;9.27;;
24401;SDS011;12539;48.808;11.292;2022-10-31T08:53:40;45.42;;;12.40;;
24401;SDS011;12539;48.808;11.292;2022-10-31T08:56:06;25.17;;;8.18;;
24401;SDS011;12539;48.808;11.292;2022-10-31T08:58:32;39.85;;;11.90;;
24401;SDS011;12539;48.808;11.292;2022-10-31T09:00:59;50.47;;;12.90;;
24401;SDS011;12539;48.808;11.292;2022-10-31T09:03:26;26.25;;;9.05;;
24401;SDS011;12539;48.808;11.292;2022-10-31T09:05:54;54.40;;;10.15;;
24401;SDS011;12539;48.808;11.292;2022-10-31T09:08:22;68.57;;;14.13;;
24401;SDS011;12539;48.808;11.292;2022-10-31T09:10:48;98.25;;;16.83;;
24401;SDS011;12539;48.808;11.292;2022-10-31T09:13:23;37.63;;;10.73;;
24401;SDS011;12539;48.808;11.292;2022-10-31T09:15:49;72.97;;;14.30;;
24401;SDS011;12539;48.808;11.292;2022-10-31T09:18:16;49.75;;;12.98;;
24401;SDS011;12539;48.808;11.292;2022-10-31T09:20:45;42.20;;;12.95;;
24401;SDS011;12539;48.808;11.292;2022-10-31T09:23:13;36.83;;;10.93;;
24401;SDS011;12539;48.808;11.292;2022-10-31T09:25:47;31.80;;;13.82;;
24401;SDS011;12539;48.808;11.292;2022-10-31T09:28:15;17.30;;;8.43;;
24401;SDS011;12539;48.808;11.292;2022-10-31T09:30:42;42.92;;;14.23;;
24401;SDS011;12539;48.808;11.292;2022-10-31T09:33:12;34.38;;;11.63;;
24401;SDS011;12539;48.808;11.292;2022-10-31T09:35:39;43.33;;;14.68;;
24401;SDS011;12539;48.808;11.292;2022-10-31T09:38:06;36.67;;;12.88;;
24401;SDS011;12539;48.808;11.292;2022-10-31T09:40:36;45.83;;;15.70;;
24401;SDS011;12539;48.808;11.292;2022-10-31T09:46:28;46.95;;;16.05;;
24401;SDS011;12539;48.808;11.292;2022-10-31T09:51:39;45.58;;;17.02;;
24401;SDS011;12539;48.808;11.292;2022-10-31T09:54:18;21.40;;;10.52;;
24401;SDS011;12539;48.808;11.292;2022-10-31T09:56:51;31.50;;;11.80;;
24401;SDS011;12539;48.808;11.292;2022-10-31T09:59:20;35.00;;;12.60;;
24401;SDS011;12539;48.808;11.292;2022-10-31T10:02:05;26.48;;;14.93;;
24401;SDS011;12539;48.808;11.292;2022-10-31T10:07:27;25.25;;;9.77;;
24401;SDS011;12539;48.808;11.292;2022-10-31T10:10:13;34.25;;;13.65;;
24401;SDS011;12539;48.808;11.292;2022-10-31T10:17:53;49.85;;;15.35;;
24401;SDS011;12539;48.808;11.292;2022-10-31T10:26:36;43.75;;;17.35;;
24401;SDS011;12539;48.808;11.292;2022-10-31T10:31:57;23.85;;;12.98;;
24401;SDS011;12539;48.808;11.292;2022-10-31T10:34:31;29.05;;;13.48;;
24401;SDS011;12539;48.808;11.292;2022-10-31T10:37:03;45.10;;;16.92;;
24401;SDS011;12539;48.808;11.292;2022-10-31T10:39:38;39.45;;;14.68;;
24401;SDS011;12539;48.808;11.292;2022-10-31T10:42:14;24.17;;;10.77;;
24401;SDS011;12539;48.808;11.292;2022-10-31T10:44:59;40.85;;;14.88;;
24401;SDS011;12539;48.808;11.292;2022-10-31T10:48:06;45.75;;;13.85;;
24401;SDS011;12539;48.808;11.292;2022-10-31T10:50:51;45.03;;;14.67;;
24401;SDS011;12539;48.808;11.292;2022-10-31T10:59:26;26.98;;;12.43;;
24401;SDS011;12539;48.808;11.292;2022-10-31T11:01:52;48.97;;;15.52;;
24401;SDS011;12539;48.808;11.292;2022-10-31T11:04:26;49.00;;;15.50;;
24401;SDS011;12539;48.808;11.292;2022-10-31T11:09:26;17.05;;;10.13;;
24401;SDS011;12539;48.808;11.292;2022-10-31T11:11:52;24.45;;;11.00;;
24401;SDS011;12539;48.808;11.292;2022-10-31T11:14:19;29.33;;;12.68;;
24401;SDS011;12539;48.808;11.292;2022-10-31T11:16:46;36.50;;;13.35;;
24401;SDS011;12539;48.808;11.292;2022-10-31T11:19:22;45.05;;;12.73;;
24401;SDS011;12539;48.808;11.292;2022-10-31T11:21:51;32.72;;;12.70;;
24401;SDS011;12539;48.808;11.292;2022-10-31T11:24:24;41.83;;;14.70;;
24401;SDS011;12539;48.808;11.292;2022-10-31T11:29:44;48.55;;;16.98;;
24401;SDS011;12539;48.808;11.292;2022-10-31T11:32:20;52.78;;;17.50;;
24401;SDS011;12539;48.808;11.292;2022-10-31T11:34:51;39.25;;;15.30;;
24401;SDS011;12539;48.808;11.292;2022-10-31T11:39:58;34.55;;;16.70;;
24401;SDS011;12539;48.808;11.292;2022-10-31T11:42:27;15.38;;;12.20;;
24401;SDS011;12539;48.808;11.292;2022-10-31T11:44:55;42.70;;;18.77;;
24401;SDS011;12539;48.808;11.292;2022-10-31T11:47:30;34.58;;;16.90;;
24401;SDS011;12539;48.808;11.292;2022-10-31T11:49:57;30.05;;;18.45;;
24401;SDS011;12539;48.808;11.292;2022-10-31T11:52:36;25.65;;;15.77;;
24401;SDS011;12539;48.808;11.292;2022-10-31T11:57:54;16.70;;;11.90;;
24401;SDS011;12539;48.808;11.292;2022-10-31T12:00:22;32.95;;;19.52;;
24401;SDS011;12539;48.808;11.292;2022-10-31T12:02:49;21.05;;;14.35;;
24401;SDS011;12539;48.808;11.292;2022-10-31T12:05:19;53.67;;;18.70;;
24401;SDS011;12539;48.808;11.292;2022-10-31T12:07:50;21.98;;;14.23;;
24401;SDS011;12539;48.808;11.292;2022-10-31T12:10:15;19.30;;;12.77;;
24401;SDS011;12539;48.808;11.292;2022-10-31T12:15:45;34.45;;;19.55;;
24401;SDS011;12539;48.808;11.292;2022-10-31T12:24:02;14.90;;;12.57;;
24401;SDS011;12539;48.808;11.292;2022-10-31T12:34:49;19.63;;;14.10;;
24401;SDS011;12539;48.808;11.292;2022-10-31T12:48:29;27.42;;;19.13;;
24401;SDS011;12539;48.808;11.292;2022-10-31T12:51:28;56.53;;;26.63;;
24401;SDS011;12539;48.808;11.292;2022-10-31T12:57:27;35.70;;;22.52;;
24401;SDS011;12539;48.808;11.292;2022-10-31T13:00:03;30.48;;;22.38;;
24401;SDS011;12539;48.808;11.292;2022-10-31T13:02:39;26.67;;;17.58;;
24401;SDS011;12539;48.808;11.292;2022-10-31T13:07:52;27.98;;;19.73;;
24401;SDS011;12539;48.808;11.292;2022-10-31T13:10:30;43.30;;;27.30;;
24401;SDS011;12539;48.808;11.292;2022-10-31T13:13:12;27.13;;;19.50;;
24401;SDS011;12539;48.808;11.292;2022-10-31T13:15:50;22.25;;;16.05;;
24401;SDS011;12539;48.808;11.292;2022-10-31T13:21:26;41.25;;;27.83;;
24401;SDS011;12539;48.808;11.292;2022-10-31T13:23:56;46.25;;;32.47;;
24401;SDS011;12539;48.808;11.292;2022-10-31T13:31:28;25.10;;;20.55;;
24401;SDS011;12539;48.808;11.292;2022-10-31T13:33:56;26.77;;;20.73;;
24401;SDS011;12539;48.808;11.292;2022-10-31T13:44:22;32.65;;;23.33;;
24401;SDS011;12539;48.808;11.292;2022-10-31T13:46:50;31.55;;;23.05;;
24401;SDS011;12539;48.808;11.292;2022-10-31T13:54:39;35.67;;;24.65;;
24401;SDS011;12539;48.808;11.292;2022-10-31T13:57:30;32.50;;;24.38;;
24401;SDS011;12539;48.808;11.292;2022-10-31T14:00:00;64.75;;;35.88;;
24401;SDS011;12539;48.808;11.292;2022-10-31T14:02:32;31.63;;;22.63;;
24401;SDS011;12539;48.808;11.292;2022-10-31T14:05:06;61.05;;;35.95;;
24401;SDS011;12539;48.808;11.292;2022-10-31T14:07:47;37.00;;;24.88;;
24401;SDS011;12539;48.808;11.292;2022-10-31T14:10:25;68.03;;;37.35;;
24401;SDS011;12539;48.808;11.292;2022-10-31T14:12:54;67.80;;;37.80;;
24401;SDS011;12539;48.808;11.292;2022-10-31T14:15:39;41.90;;;26.70;;
24401;SDS011;12539;48.808;11.292;2022-10-31T14:18:24;68.38;;;38.97;;
24401;SDS011;12539;48.808;11.292;2022-10-31T14:20:55;56.88;;;32.33;;
24401;SDS011;12539;48.808;11.292;2022-10-31T14:23:54;59.92;;;33.75;;
24401;SDS011;12539;48.808;11.292;2022-10-31T14:28:57;38.88;;;26.42;;
24401;SDS011;12539;48.808;11.292;2022-10-31T14:50:37;60.03;;;33.30;;
24401;SDS011;12539;48.808;11.292;2022-10-31T14:53:05;45.88;;;28.23;;
24401;SDS011;12539;48.808;11.292;2022-10-31T14:55:39;38.38;;;25.85;;
24401;SDS011;12539;48.808;11.292;2022-10-31T14:58:13;60.05;;;34.55;;
24401;SDS011;12539;48.808;11.292;2022-10-31T15:00:44;61.10;;;37.05;;
24401;SDS011;12539;48.808;11.292;2022-10-31T15:03:17;58.78;;;35.13;;
24401;SDS011;12539;48.808;11.292;2022-10-31T15:05:51;54.97;;;32.97;;
24401;SDS011;12539;48.808;11.292;2022-10-31T15:08:31;51.92;;;32.03;;
24401;SDS011;12539;48.808;11.292;2022-10-31T15:11:09;60.50;;;35.80;;
24401;SDS011;12539;48.808;11.292;2022-10-31T15:13:40;56.13;;;33.53;;
24401;SDS011;12539;48.808;11.292;2022-10-31T15:16:11;46.75;;;28.83;;
24401;SDS011;12539;48.808;11.292;2022-10-31T15:18:44;70.45;;;39.28;;
24401;SDS011;12539;48.808;11.292;2022-10-31T15:21:18;48.38;;;30.35;;
24401;SDS011;12539;48.808;11.292;2022-10-31T15:23:46;86.80;;;44.80;;
24401;SDS011;12539;48.808;11.292;2022-10-31T15:26:17;99.85;;;47.35;;
24401;SDS011;12539;48.808;11.292;2022-10-31T15:28:56;101.00;;;51.53;;
24401;SDS011;12539;48.808;11.292;2022-10-31T15:31:30;94.05;;;46.75;;
24401;SDS011;12539;48.808;11.292;2022-10-31T15:33:58;103.97;;;48.75;;
24401;SDS011;12539;48.808;11.292;2022-10-31T15:36:28;86.22;;;43.95;;
24401;SDS011;12539;48.808;11.292;2022-10-31T15:38:57;82.72;;;41.28;;
24401;SDS011;12539;48.808;11.292;2022-10-31T15:44:16;97.55;;;47.65;;
24401;SDS011;12539;48.808;11.292;2022-10-31T15:47:06;137.27;;;47.67;;
24401;SDS011;12539;48.808;11.292;2022-10-31T15:49:41;67.22;;;36.10;;
24401;SDS011;12539;48.808;11.292;2022-10-31T15:52:32;97.43;;;44.03;;
24401;SDS011;12539;48.808;11.292;2022-10-31T15:57:34;78.05;;;36.83;;
24401;SDS011;12539;48.808;11.292;2022-10-31T16:00:20;174.65;;;59.40;;
24401;SDS011;12539;48.808;11.292;2022-10-31T16:05:52;77.07;;;35.72;;
24401;SDS011;12539;48.808;11.292;2022-10-31T16:11:39;59.33;;;34.75;;
24401;SDS011;12539;48.808;11.292;2022-10-31T16:13:40;261.77;;;57.67;;
24401;SDS011;12539;48.808;11.292;2022-10-31T16:16:27;119.63;;;45.22;;
24401;SDS011;12539;48.808;11.292;2022-10-31T16:18:54;121.18;;;40.95;;
24401;SDS011;12539;48.808;11.292;2022-10-31T16:21:31;61.50;;;35.03;;
24401;SDS011;12539;48.808;11.292;2022-10-31T16:24:04;62.65;;;33.97;;
24401;SDS011;12539;48.808;11.292;2022-10-31T16:26:36;368.00;;;68.63;;
24401;SDS011;12539;48.808;11.292;2022-10-31T16:29:02;366.02;;;68.55;;
24401;SDS011;12539;48.808;11.292;2022-10-31T16:31:28;173.32;;;52.55;;
24401;SDS011;12539;48.808;11.292;2022-10-31T16:34:09;65.32;;;34.17;;
24401;SDS011;12539;48.808;11.292;2022-10-31T16:36:40;180.85;;;47.10;;
24401;SDS011;12539;48.808;11.292;2022-10-31T16:39:06;195.18;;;54.65;;
24401;SDS011;12539;48.808;11.292;2022-10-31T16:41:38;148.98;;;42.53;;
24401;SDS011;12539;48.808;11.292;2022-10-31T16:44:06;197.10;;;54.30;;
24401;SDS011;12539;48.808;11.292;2022-10-31T16:46:47;186.18;;;48.15;;
24401;SDS011;12539;48.808;11.292;2022-10-31T16:49:12;349.75;;;62.92;;
24401;SDS011;12539;48.808;11.292;2022-10-31T16:51:40;101.55;;;41.40;;
24401;SDS011;12539;48.808;11.292;2022-10-31T16:54:06;70.10;;;36.88;;
24401;SDS011;12539;48.808;11.292;2022-10-31T16:56:34;337.67;;;65.18;;
24401;SDS011;12539;48.808;11.292;2022-10-31T16:59:02;158.38;;;47.03;;
24401;SDS011;12539;48.808;11.292;2022-10-31T17:01:30;94.30;;;41.58;;
24401;SDS011;12539;48.808;11.292;2022-10-31T17:03:56;141.02;;;46.53;;
24401;SDS011;12539;48.808;11.292;2022-10-31T17:06:22;161.18;;;42.28;;
24401;SDS011;12539;48.808;11.292;2022-10-31T17:08:47;205.88;;;50.03;;
24401;SDS011;12539;48.808;11.292;2022-10-31T17:11:15;144.68;;;46.22;;
24401;SDS011;12539;48.808;11.292;2022-10-31T17:13:43;102.82;;;42.50;;
24401;SDS011;12539;48.808;11.292;2022-10-31T17:16:09;85.43;;;36.00;;
24401;SDS011;12539;48.808;11.292;2022-10-31T17:18:38;117.45;;;41.78;;
24401;SDS011;12539;48.808;11.292;2022-10-31T17:21:04;174.82;;;45.70;;
24401;SDS011;12539;48.808;11.292;2022-10-31T17:23:32;98.82;;;42.35;;